Time;durP1;ratioP1;P1;durP2;ratioP2;P2;SDS_P1;SDS_P2;PMS_P1;PMS_P2;Temp;Humidity;BMP_temperature;BMP_pressure;BME280_temperature;BME280_humidity;BME280_pressure;Samples;Min_cycle;Max_cycle;Signal;HPM_P1;HPM_P2
2023/12/16 00:00:34;;;;;;;9.05;2.00;;;;;;;-146.27;66.67;32894.56;5091860;28;20020;-70
2023/12/16 00:02:59;;;;;;;13.88;1.98;;;;;;;-146.27;66.44;32886.63;5093145;28;20061;-70
2023/12/16 00:05:24;;;;;;;15.88;2.03;;;;;;;-146.27;65.81;32831.09;5099739;28;20074;-68
2023/12/16 00:07:50;;;;;;;12.52;1.90;;;;;;;-146.27;65.91;32860.84;5092231;28;20367;-68
2023/12/16 00:10:16;;;;;;;16.02;2.40;;;;;;;-146.27;66.13;32926.31;5092982;28;20418;-69
2023/12/16 00:12:42;;;;;;;9.27;1.90;;;;;;;-146.27;67.33;32930.28;5096241;28;20039;-69
2023/12/16 00:15:10;;;;;;;7.45;1.45;;;;;;;-146.27;67.81;32977.91;5097321;28;20019;-69
2023/12/16 00:17:35;;;;;;;15.90;1.77;;;;;;;-146.27;67.48;32981.88;5095854;28;20032;-70
2023/12/16 00:20:01;;;;;;;8.88;1.70;;;;;;;-146.27;67.34;32922.34;5094322;28;20070;-69
2023/12/16 00:22:26;;;;;;;14.73;2.03;;;;;;;-146.27;68.04;33047.34;5102598;28;20028;-69
2023/12/16 00:24:51;;;;;;;9.10;1.83;;;;;;;-146.27;69.67;33089.00;5102332;28;20487;-69
2023/12/16 00:27:17;;;;;;;10.85;2.40;;;;;;;-146.27;69.55;33009.66;5097849;28;20023;-69
2023/12/16 00:29:42;;;;;;;13.48;1.85;;;;;;;-146.27;69.50;32950.13;5096558;28;20024;-69
2023/12/16 00:32:08;;;;;;;14.52;2.22;;;;;;;-146.27;70.70;33094.97;5107574;28;20051;-69
2023/12/16 00:34:33;;;;;;;16.08;2.20;;;;;;;-146.27;69.82;32938.22;5095382;28;20364;-68
2023/12/16 00:37:00;;;;;;;11.60;2.00;;;;;;;-146.27;70.97;33079.09;5100203;28;20080;-69
2023/12/16 00:39:25;;;;;;;8.80;1.90;;;;;;;-146.27;71.21;33067.19;5109982;28;20882;-68
2023/12/16 00:41:51;;;;;;;14.68;2.97;;;;;;;-146.27;70.79;33035.44;5097582;28;20036;-68
2023/12/16 00:44:16;;;;;;;11.82;1.83;;;;;;;-146.27;70.77;32997.75;5095239;28;20460;-69
2023/12/16 00:46:42;;;;;;;17.75;2.25;;;;;;;-146.27;70.92;33005.69;5093716;28;20484;-68
2023/12/16 00:49:08;;;;;;;13.20;2.75;;;;;;;-146.27;72.34;33124.72;5091598;28;20039;-69
2023/12/16 00:51:33;;;;;;;13.27;3.13;;;;;;;-146.27;72.65;33077.09;5090809;28;20028;-69
2023/12/16 00:53:58;;;;;;;13.90;2.58;;;;;;;-146.27;73.57;33146.53;5094186;28;20601;-69
2023/12/16 00:56:24;;;;;;;10.90;2.10;;;;;;;-146.27;73.40;33104.88;5097863;28;20108;-68
2023/12/16 00:58:49;;;;;;;18.77;2.63;;;;;;;-146.27;72.74;33081.06;5100543;28;20031;-69
2023/12/16 01:01:14;;;;;;;15.07;2.85;;;;;;;-146.27;73.50;33075.13;5097506;28;20027;-68
2023/12/16 01:03:40;;;;;;;11.27;2.47;;;;;;;-146.27;74.10;33130.66;5106679;28;20031;-69
2023/12/16 01:06:06;;;;;;;10.23;2.35;;;;;;;-146.27;74.17;33112.81;5091983;28;20380;-69
2023/12/16 01:08:33;;;;;;;11.98;2.35;;;;;;;-146.27;75.22;33160.44;5089967;28;20126;-69
2023/12/16 01:10:59;;;;;;;14.07;2.63;;;;;;;-146.27;75.05;33118.75;5095105;28;20492;-68
2023/12/16 01:13:24;;;;;;;17.67;2.38;;;;;;;-146.27;74.90;33124.72;5100838;28;20527;-70
2023/12/16 01:15:49;;;;;;;17.60;3.20;;;;;;;-146.27;74.58;33092.97;5099858;28;20110;-68
2023/12/16 01:18:16;;;;;;;12.88;2.45;;;;;;;-146.27;75.22;33138.59;5092297;28;20023;-69
2023/12/16 01:20:41;;;;;;;14.65;2.50;;;;;;;-146.27;75.59;33154.47;5107575;28;20036;-69
2023/12/16 01:23:07;;;;;;;14.30;2.78;;;;;;;-146.27;76.06;33172.34;5093120;28;20028;-69
2023/12/16 01:25:32;;;;;;;16.30;2.80;;;;;;;-146.27;75.80;33120.75;5090521;28;20528;-69
2023/12/16 01:27:57;;;;;;;8.52;3.08;;;;;;;-146.27;76.04;33206.06;5089978;28;20031;-68
2023/12/16 01:30:24;;;;;;;15.43;2.70;;;;;;;-146.27;75.68;33110.81;5110072;28;20023;-69
2023/12/16 01:32:50;;;;;;;13.52;2.40;;;;;;;-146.27;76.32;33217.97;5109488;28;20051;-69
2023/12/16 01:35:15;;;;;;;11.93;3.00;;;;;;;-146.27;76.34;33150.50;5104151;28;20465;-69
2023/12/16 01:37:40;;;;;;;13.80;3.38;;;;;;;-146.27;77.91;33239.78;5101250;28;20548;-69
2023/12/16 01:40:06;;;;;;;12.35;2.97;;;;;;;-146.27;76.93;33196.13;5096481;28;20032;-69
2023/12/16 01:42:32;;;;;;;9.50;2.65;;;;;;;-146.27;77.50;33200.09;5103459;28;20027;-69
2023/12/16 01:44:58;;;;;;;10.32;3.65;;;;;;;-146.27;77.34;33194.16;5099898;28;20084;-69
2023/12/16 01:47:24;;;;;;;17.30;4.28;;;;;;;-146.27;78.07;33269.56;5090792;28;20365;-69
2023/12/16 01:49:50;;;;;;;18.92;3.15;;;;;;;-146.27;77.31;33152.50;5090496;28;20016;-69
2023/12/16 01:52:17;;;;;;;15.38;4.85;;;;;;;-146.27;77.89;33192.16;5072911;28;20023;-69
2023/12/16 01:54:42;;;;;;;21.15;4.05;;;;;;;-146.27;77.75;33194.16;5092237;28;20012;-69
2023/12/16 01:57:08;;;;;;;15.70;3.25;;;;;;;-146.27;78.70;33249.72;5091655;28;20107;-69
2023/12/16 01:59:33;;;;;;;21.30;3.88;;;;;;;-146.27;79.28;33307.25;5086137;28;20406;-69
2023/12/16 02:01:59;;;;;;;19.05;4.25;;;;;;;-146.27;79.17;33241.78;5095306;28;20132;-69
2023/12/16 02:04:26;;;;;;;13.40;3.17;;;;;;;-146.27;78.43;33180.28;5110106;28;20024;-69
2023/12/16 02:06:51;;;;;;;11.48;4.15;;;;;;;-146.27;78.68;33215.97;5102462;28;20039;-69
2023/12/16 02:09:18;;;;;;;16.55;3.30;;;;;;;-146.27;78.21;33160.44;5097216;28;20407;-69
2023/12/16 02:11:44;;;;;;;18.13;4.28;;;;;;;-146.27;77.72;33170.34;5091376;28;20031;-70
2023/12/16 02:14:09;;;;;;;14.35;3.40;;;;;;;-146.27;77.65;33130.66;5090014;28;20081;-68
2023/12/16 02:16:36;;;;;;;22.95;4.45;;;;;;;-146.27;77.59;33154.47;5091297;28;20492;-70
2023/12/16 02:19:02;;;;;;;16.75;3.40;;;;;;;-146.27;77.76;33108.84;5085015;28;20054;-70
2023/12/16 02:21:27;;;;;;;17.98;3.80;;;;;;;-146.27;79.16;33267.56;5105260;28;20077;-69
2023/12/16 02:23:53;;;;;;;12.70;3.60;;;;;;;-146.27;78.86;33172.34;5103713;28;20475;-68
2023/12/16 02:26:18;;;;;;;18.08;3.80;;;;;;;-146.27;78.74;33196.13;5106101;28;20019;-69
2023/12/16 02:28:43;;;;;;;14.55;3.63;;;;;;;-146.27;78.38;33188.19;5095098;28;20111;-69
2023/12/16 02:31:09;;;;;;;20.10;3.63;;;;;;;-146.27;78.38;33176.31;5089938;28;20207;-68
2023/12/16 02:33:34;;;;;;;30.23;4.00;;;;;;;-146.27;78.15;33148.53;5090586;28;20028;-68
2023/12/16 02:36:00;;;;;;;15.88;3.88;;;;;;;-146.27;77.81;33104.88;5093571;28;20103;-70
2023/12/16 02:38:26;;;;;;;17.00;3.65;;;;;;;-146.27;78.57;33152.50;5101448;28;20030;-68
2023/12/16 02:40:51;;;;;;;23.05;3.95;;;;;;;-146.27;78.41;33144.56;5089972;28;20031;-68
2023/12/16 02:43:17;;;;;;;17.98;4.63;;;;;;;-146.27;78.03;33140.59;5097639;28;20039;-68
2023/12/16 02:45:42;;;;;;;17.52;4.03;;;;;;;-146.27;79.61;33196.13;5092952;28;20034;-69
2023/12/16 02:48:08;;;;;;;21.55;3.95;;;;;;;-146.27;79.47;33178.28;5090310;28;20698;-72
2023/12/16 02:50:33;;;;;;;15.45;3.25;;;;;;;-146.27;79.19;33219.94;5100785;28;20504;-69
2023/12/16 02:52:59;;;;;;;24.20;4.10;;;;;;;-146.27;79.23;33188.19;5084230;28;20852;-69
2023/12/16 02:55:25;;;;;;;21.98;4.70;;;;;;;-146.27;79.49;33166.38;5096810;28;20131;-69
2023/12/16 02:57:50;;;;;;;23.80;4.55;;;;;;;-146.27;80.58;33259.63;5099295;28;20107;-69
2023/12/16 03:00:16;;;;;;;21.17;4.18;;;;;;;-146.27;79.75;33176.31;5090667;28;20016;-69
2023/12/16 03:02:41;;;;;;;17.45;3.95;;;;;;;-146.27;79.11;33172.34;5103498;28;20062;-69
2023/12/16 03:05:07;;;;;;;18.05;3.72;;;;;;;-146.27;80.00;33204.06;5092929;28;20023;-69
2023/12/16 03:07:33;;;;;;;22.50;4.07;;;;;;;-146.27;80.42;33289.41;5102908;28;20035;-68
2023/12/16 03:09:58;;;;;;;19.60;4.03;;;;;;;-146.27;80.78;33275.50;5097320;28;20019;-69
2023/12/16 03:12:24;;;;;;;19.52;4.35;;;;;;;-146.27;81.47;33255.66;5097064;28;20027;-69
2023/12/16 03:14:50;;;;;;;18.90;4.00;;;;;;;-146.27;80.02;33162.41;5106867;28;20387;-69
2023/12/16 03:17:15;;;;;;;13.93;3.88;;;;;;;-146.27;81.00;33267.56;5110231;28;20034;-69
2023/12/16 03:19:41;;;;;;;16.75;3.88;;;;;;;-146.27;81.66;33277.50;5098481;28;20114;-70
2023/12/16 03:22:06;;;;;;;17.90;3.95;;;;;;;-146.27;81.56;33295.34;5092972;28;20379;-70
2023/12/16 03:24:31;;;;;;;17.63;3.75;;;;;;;-146.27;81.15;33212.00;5112292;28;20036;-69
2023/12/16 03:26:57;;;;;;;16.50;3.65;;;;;;;-146.27;80.67;33202.09;5099978;28;20031;-69
2023/12/16 03:29:22;;;;;;;18.73;3.60;;;;;;;-146.27;80.76;33219.94;5098073;28;20020;-69
2023/12/16 03:31:48;;;;;;;23.33;4.22;;;;;;;-146.27;81.07;33249.72;5101771;27;20461;-69
2023/12/16 03:34:13;;;;;;;22.65;5.30;;;;;;;-146.27;81.41;33212.00;5108916;27;20055;-69
2023/12/16 03:36:38;;;;;;;24.25;4.25;;;;;;;-146.27;81.60;33208.03;5095086;28;20040;-70
2023/12/16 03:39:04;;;;;;;25.25;4.78;;;;;;;-146.27;82.03;33243.75;5074485;28;20049;-67
2023/12/16 03:41:29;;;;;;;24.20;3.85;;;;;;;-146.27;81.71;33275.50;5075072;28;20024;-69
2023/12/16 03:43:55;;;;;;;16.42;4.15;;;;;;;-146.27;82.01;33249.72;5101646;28;20055;-68
2023/12/16 03:46:21;;;;;;;13.20;4.13;;;;;;;-146.27;83.06;33327.09;5100010;28;20037;-70
2023/12/16 03:48:46;;;;;;;17.15;4.18;;;;;;;-146.27;83.54;33301.28;5103045;28;20066;-71
2023/12/16 03:51:12;;;;;;;24.30;4.03;;;;;;;-146.27;82.77;33287.41;5101605;28;20474;-69
2023/12/16 03:53:37;;;;;;;20.45;4.38;;;;;;;-146.27;82.18;33255.66;5100600;28;20031;-69
2023/12/16 03:56:03;;;;;;;16.67;4.13;;;;;;;-146.27;83.17;33370.75;5093920;28;20111;-69
2023/12/16 03:58:29;;;;;;;21.25;4.82;;;;;;;-146.27;83.23;33313.19;5093027;28;20107;-70
2023/12/16 04:00:54;;;;;;;23.00;4.40;;;;;;;-146.27;83.36;33346.94;5092829;28;20123;-69
2023/12/16 04:03:19;;;;;;;19.33;3.65;;;;;;;-146.27;83.61;33279.47;5106976;28;20028;-69
2023/12/16 04:05:45;;;;;;;25.08;4.90;;;;;;;-146.27;83.55;33245.75;5102273;28;20494;-69
2023/12/16 04:08:10;;;;;;;17.63;4.72;;;;;;;-146.27;83.25;33335.03;5107943;28;20501;-69
2023/12/16 04:10:36;;;;;;;20.55;4.38;;;;;;;-146.27;82.45;33215.97;5112540;28;20039;-71
2023/12/16 04:13:01;;;;;;;18.80;4.47;;;;;;;-146.27;82.87;33267.56;5105209;28;20043;-69
2023/12/16 04:15:26;;;;;;;20.33;4.55;;;;;;;-146.27;83.16;33243.75;5085343;28;20027;-69
2023/12/16 04:17:52;;;;;;;22.67;4.05;;;;;;;-146.27;82.74;33227.88;5092844;28;20452;-69
2023/12/16 04:20:17;;;;;;;20.20;4.00;;;;;;;-146.27;82.49;33251.69;5092091;28;20024;-69
2023/12/16 04:22:43;;;;;;;20.50;4.38;;;;;;;-146.27;82.28;33229.88;5110684;27;20019;-69
2023/12/16 04:25:11;;;;;;;31.55;5.20;;;;;;;-146.27;82.76;33287.41;5098267;28;20062;-68
2023/12/16 04:27:37;;;;;;;23.60;5.40;;;;;;;-146.27;83.89;33342.97;5108477;28;20063;-69
2023/12/16 04:30:03;;;;;;;23.33;4.53;;;;;;;-146.27;83.77;33267.56;5100367;28;20032;-69
2023/12/16 04:32:29;;;;;;;20.30;5.13;;;;;;;-146.27;84.31;33327.09;5107585;28;20133;-69
2023/12/16 04:34:54;;;;;;;22.65;4.47;;;;;;;-146.27;83.34;33233.84;5091605;28;20051;-69
2023/12/16 04:37:20;;;;;;;25.38;5.03;;;;;;;-146.27;83.69;33279.47;5107583;28;20487;-68
2023/12/16 04:39:45;;;;;;;23.08;5.00;;;;;;;-146.27;84.97;33402.50;5074117;28;20490;-68
2023/12/16 04:42:10;;;;;;;26.75;4.53;;;;;;;-146.27;84.64;33303.28;5090876;28;20028;-70
2023/12/16 04:44:37;;;;;;;26.25;5.45;;;;;;;-146.27;85.39;33360.81;5094590;28;20056;-70
2023/12/16 04:47:03;;;;;;;26.48;4.60;;;;;;;-146.27;84.20;33307.25;5093207;28;20827;-70
2023/12/16 04:49:29;;;;;;;21.70;4.03;;;;;;;-146.27;84.75;33372.72;5091469;28;20028;-70
2023/12/16 04:51:54;;;;;;;23.63;4.15;;;;;;;-146.27;84.63;33315.19;5091530;28;20103;-69
2023/12/16 04:54:20;;;;;;;16.70;3.75;;;;;;;-146.27;84.32;33295.34;5100247;28;20433;-69
2023/12/16 04:56:47;;;;;;;24.35;4.40;;;;;;;-146.27;84.55;33267.56;5101624;28;20027;-69
2023/12/16 04:59:13;;;;;;;24.45;4.22;;;;;;;-146.27;84.73;33299.31;5099030;28;20479;-69
2023/12/16 05:01:38;;;;;;;27.15;5.82;;;;;;;-146.27;83.78;33227.88;5076387;28;20031;-69
2023/12/16 05:04:03;;;;;;;20.98;3.88;;;;;;;-146.27;84.55;33263.59;5111704;28;20030;-69
2023/12/16 05:06:29;;;;;;;29.20;6.78;;;;;;;-146.27;85.13;33335.03;5093192;28;20024;-68
2023/12/16 05:08:54;;;;;;;21.55;4.93;;;;;;;-146.27;85.15;33346.94;5090953;28;20035;-69
2023/12/16 05:11:19;;;;;;;22.15;4.88;;;;;;;-146.27;84.72;33281.47;5090777;28;20078;-69
2023/12/16 05:13:45;;;;;;;20.23;4.10;;;;;;;-146.27;84.81;33267.56;5092455;28;20035;-69
2023/12/16 05:16:10;;;;;;;18.77;4.63;;;;;;;-146.27;85.39;33344.94;5096709;28;20115;-68
2023/12/16 05:18:35;;;;;;;25.33;4.32;;;;;;;-146.27;84.99;33301.28;5099836;28;20041;-69
2023/12/16 05:21:01;;;;;;;28.48;4.68;;;;;;;-146.27;84.99;33303.28;5097920;28;20609;-69
2023/12/16 05:23:27;;;;;;;30.05;4.22;;;;;;;-146.27;85.40;33315.19;5106165;28;20148;-69
2023/12/16 05:25:52;;;;;;;27.35;4.63;;;;;;;-146.27;85.68;33331.06;5104643;28;20464;-69
2023/12/16 05:28:17;;;;;;;24.73;3.95;;;;;;;-146.27;86.66;33396.53;5087669;28;21731;-69
2023/12/16 05:30:43;;;;;;;21.25;3.78;;;;;;;-146.27;86.59;33350.91;5090930;28;20059;-69
2023/12/16 05:33:08;;;;;;;29.15;3.88;;;;;;;-146.27;85.40;33251.69;5086139;28;20024;-69
2023/12/16 05:35:33;;;;;;;20.02;3.58;;;;;;;-146.27;85.24;33251.69;5089927;28;20062;-69
2023/12/16 05:37:59;;;;;;;22.60;4.05;;;;;;;-146.27;86.35;33370.75;5095055;28;20047;-70
2023/12/16 05:40:24;;;;;;;18.10;3.40;;;;;;;-146.27;86.82;33339.00;5094797;28;20049;-68
2023/12/16 05:42:50;;;;;;;23.08;3.78;;;;;;;-146.27;85.85;33299.31;5103662;28;20053;-69
2023/12/16 05:45:15;;;;;;;25.42;4.45;;;;;;;-146.27;86.34;33323.13;5105413;28;20379;-67
2023/12/16 05:47:40;;;;;;;26.35;4.63;;;;;;;-146.27;86.18;33281.47;5092216;28;20499;-69
2023/12/16 05:50:08;;;;;;;24.02;4.32;;;;;;;-146.27;86.28;33291.38;5096308;28;20419;-69
2023/12/16 05:52:34;;;;;;;27.23;4.30;;;;;;;-146.27;86.51;33339.00;5107421;28;20068;-68
2023/12/16 05:55:00;;;;;;;22.05;3.88;;;;;;;-146.27;86.58;33358.84;5100834;28;20020;-70
2023/12/16 05:57:25;;;;;;;22.67;3.30;;;;;;;-146.27;87.20;33319.16;5095136;28;20306;-69
2023/12/16 05:59:51;;;;;;;24.75;4.10;;;;;;;-146.27;87.13;33327.09;5089779;28;20115;-69
2023/12/16 06:02:16;;;;;;;23.48;4.60;;;;;;;-146.27;85.94;33229.88;5089227;28;20020;-69
2023/12/16 06:04:42;;;;;;;31.90;4.18;;;;;;;-146.27;86.08;33271.53;5089392;28;20106;-69
2023/12/16 06:07:07;;;;;;;27.35;4.07;;;;;;;-146.27;86.20;33239.78;5092896;28;20028;-69
2023/12/16 06:09:33;;;;;;;32.33;4.28;;;;;;;-146.27;86.97;33295.34;5093261;28;20031;-70
2023/12/16 06:11:58;;;;;;;22.45;3.72;;;;;;;-146.27;86.59;33279.47;5093222;28;20110;-69
2023/12/16 06:14:23;;;;;;;25.02;4.05;;;;;;;-146.27;86.13;33277.50;5076599;28;20023;-68
2023/12/16 06:16:49;;;;;;;25.30;4.75;;;;;;;-146.27;86.66;33319.16;5098962;28;20031;-68
2023/12/16 06:19:15;;;;;;;23.77;3.28;;;;;;;-146.27;87.22;33317.16;5076416;28;20032;-69
2023/12/16 06:21:40;;;;;;;21.63;4.35;;;;;;;-146.27;87.23;33325.09;5097091;28;20109;-69
2023/12/16 06:24:08;;;;;;;19.30;3.53;;;;;;;-146.27;86.30;33287.41;5093780;28;20028;-69
2023/12/16 06:26:34;;;;;;;15.50;4.30;;;;;;;-146.27;87.29;33339.00;5088785;28;20060;-69
2023/12/16 06:28:59;;;;;;;24.73;3.58;;;;;;;-146.27;87.29;33346.94;5089154;28;20062;-69
2023/12/16 06:31:24;;;;;;;23.67;3.42;;;;;;;-146.27;86.61;33331.06;5097254;28;20124;-69
2023/12/16 06:33:50;;;;;;;33.88;4.65;;;;;;;-146.27;87.29;33335.03;5094865;28;20368;-69
2023/12/16 06:36:15;;;;;;;20.67;3.63;;;;;;;-146.27;87.31;33339.00;5091211;28;20068;-70
2023/12/16 06:38:41;;;;;;;19.92;3.72;;;;;;;-146.27;87.23;33352.88;5097065;28;20032;-68
2023/12/16 06:41:06;;;;;;;22.02;3.60;;;;;;;-146.27;86.53;33249.72;5076590;28;20020;-69
2023/12/16 06:43:31;;;;;;;19.40;3.00;;;;;;;-146.27;86.62;33283.44;5104832;27;20063;-68
2023/12/16 06:45:57;;;;;;;26.20;3.72;;;;;;;-146.27;86.92;33331.06;5105275;27;20030;-69
2023/12/16 06:48:23;;;;;;;20.23;3.47;;;;;;;-146.27;86.71;33339.00;5110669;27;20483;-70
2023/12/16 06:50:51;;;;;;;22.23;3.63;;;;;;;-146.27;88.35;33346.94;5095127;27;20480;-70
2023/12/16 06:53:18;;;;;;;26.35;4.35;;;;;;;-146.27;87.62;33315.19;5097702;28;20023;-69
2023/12/16 06:55:44;;;;;;;27.10;4.93;;;;;;;-146.27;86.67;33289.41;5084927;28;20085;-69
2023/12/16 06:58:10;;;;;;;35.60;4.97;;;;;;;-146.27;86.21;33275.50;5099017;28;20278;-69
2023/12/16 07:00:36;;;;;;;21.52;3.63;;;;;;;-146.27;87.16;33319.16;5101163;28;20453;-72
2023/12/16 07:03:02;;;;;;;27.02;5.72;;;;;;;-146.27;88.12;33386.63;5095493;27;20047;-70
2023/12/16 07:05:28;;;;;;;26.23;4.35;;;;;;;-146.27;87.30;33335.03;5096304;27;21803;-70
2023/12/16 07:07:54;;;;;;;22.38;3.85;;;;;;;-146.27;87.66;33362.81;5097580;28;20443;-70
2023/12/16 07:10:19;;;;;;;20.83;3.92;;;;;;;-146.27;88.38;33364.78;5100042;27;20040;-70
2023/12/16 07:12:45;;;;;;;15.05;4.18;;;;;;;-146.27;88.08;33299.31;5099520;28;20024;-69
2023/12/16 07:15:10;;;;;;;33.83;5.80;;;;;;;-146.27;87.73;33354.88;5098838;27;20027;-69
2023/12/16 07:17:36;;;;;;;24.80;4.30;;;;;;;-146.27;88.73;33394.56;5096843;28;20501;-72
2023/12/16 07:20:02;;;;;;;18.35;3.33;;;;;;;-146.27;88.38;33396.53;5096142;28;20135;-69
2023/12/16 07:22:29;;;;;;;25.08;5.18;;;;;;;-146.27;88.28;33384.63;5094019;28;20042;-69
2023/12/16 07:24:56;;;;;;;27.65;4.32;;;;;;;-146.27;88.15;33342.97;5093469;28;20031;-69
2023/12/16 07:27:22;;;;;;;21.13;4.43;;;;;;;-146.27;88.49;33366.78;5093684;28;20126;-70
2023/12/16 07:29:47;;;;;;;25.25;5.55;;;;;;;-146.27;88.91;33442.16;5094794;28;20036;-69
2023/12/16 07:32:13;;;;;;;19.85;3.85;;;;;;;-146.27;89.26;33398.53;5093579;28;20097;-69
2023/12/16 07:34:40;;;;;;;23.42;4.57;;;;;;;-146.27;88.41;33422.34;5073366;28;20020;-69
2023/12/16 07:37:06;;;;;;;34.50;6.80;;;;;;;-146.27;87.48;33346.94;5094818;28;20032;-68
2023/12/16 07:39:31;;;;;;;33.53;4.88;;;;;;;-146.27;88.13;33339.00;5099231;28;20044;-69
2023/12/16 07:41:57;;;;;;;17.38;4.30;;;;;;;-146.27;87.23;33364.78;5092731;28;20031;-69
2023/12/16 07:44:24;;;;;;;21.05;3.40;;;;;;;-146.27;88.15;33362.81;5096405;28;20038;-69
2023/12/16 07:47:09;;;;;;;23.10;3.55;;;;;;;-146.27;87.28;33325.09;5081715;27;20055;-70
2023/12/16 07:49:35;;;;;;;26.65;4.93;;;;;;;-146.27;87.51;33313.19;5079429;28;20039;-69
2023/12/16 07:52:01;;;;;;;19.67;4.30;;;;;;;-146.27;87.82;33376.69;5091499;28;20024;-70
2023/12/16 07:54:30;;;;;;;14.95;3.60;;;;;;;-146.27;87.22;33313.19;5092547;28;20117;-70
2023/12/16 07:56:55;;;;;;;30.85;4.63;;;;;;;-146.27;87.77;33366.78;5091144;28;20099;-71
2023/12/16 07:59:27;;;;;;;30.63;4.78;;;;;;;-146.27;87.92;33321.13;5090836;28;20665;-70
2023/12/16 08:01:54;;;;;;;28.92;3.90;;;;;;;-146.27;87.99;33295.34;5094580;28;20020;-69
2023/12/16 08:04:23;;;;;;;22.00;3.90;;;;;;;-146.27;87.81;33247.72;5078227;28;20400;-70
2023/12/16 08:06:52;;;;;;;22.88;4.60;;;;;;;-146.27;89.00;33339.00;5074696;28;20031;-70
2023/12/16 08:09:18;;;;;;;18.38;4.65;;;;;;;-146.27;88.56;33275.50;5076396;28;20414;-68
2023/12/16 08:11:44;;;;;;;35.00;5.28;;;;;;;-146.27;88.25;33235.81;5095690;28;20022;-71
2023/12/16 08:14:09;;;;;;;23.45;4.93;;;;;;;-146.27;88.29;33223.91;5082912;28;20036;-68
2023/12/16 08:16:37;;;;;;;26.65;5.03;;;;;;;-146.27;88.03;33208.03;5092554;28;20077;-70
2023/12/16 08:19:02;;;;;;;27.83;4.68;;;;;;;-146.27;87.41;33190.19;5105957;28;20031;-69
2023/12/16 08:21:27;;;;;;;23.30;4.25;;;;;;;-146.27;88.54;33269.56;5091536;28;20051;-70
2023/12/16 08:23:53;;;;;;;27.60;4.70;;;;;;;-146.27;88.13;33208.03;5098308;28;20506;-70
2023/12/16 08:26:18;;;;;;;28.25;4.35;;;;;;;-146.27;87.97;33210.03;5096422;28;20443;-69
2023/12/16 08:28:43;;;;;;;27.15;4.30;;;;;;;-146.27;88.26;33188.19;5094358;28;20137;-68
2023/12/16 08:31:09;;;;;;;23.85;5.22;;;;;;;-146.27;87.76;33168.38;5094421;28;20143;-68
2023/12/16 08:33:34;;;;;;;23.60;4.53;;;;;;;-146.27;87.89;33156.47;5091525;28;20490;-70
2023/12/16 08:36:00;;;;;;;26.63;5.28;;;;;;;-146.27;87.62;33164.41;5100228;28;20571;-69
2023/12/16 08:38:25;;;;;;;20.17;4.47;;;;;;;-146.27;87.81;33148.53;5104659;28;20024;-69
2023/12/16 08:40:53;;;;;;;22.33;4.63;;;;;;;-146.27;88.38;33186.22;5096028;28;20080;-69
2023/12/16 08:43:18;;;;;;;19.98;4.70;;;;;;;-146.27;88.64;33120.75;5109789;28;20028;-69
2023/12/16 08:45:44;;;;;;;21.02;4.80;;;;;;;-146.27;88.84;33180.28;5103164;28;20030;-69
2023/12/16 08:48:09;;;;;;;19.13;4.00;;;;;;;-146.27;88.32;33081.06;5095083;28;20161;-68
2023/12/16 08:50:35;;;;;;;19.77;4.15;;;;;;;-146.27;87.08;33021.53;5095804;28;20020;-68
2023/12/16 08:53:03;;;;;;;25.30;6.25;;;;;;;-146.27;87.56;33049.31;5095453;28;20031;-69
2023/12/16 08:55:29;;;;;;;18.40;4.45;;;;;;;-146.27;88.65;33120.75;5104645;27;20383;-69
2023/12/16 08:57:55;;;;;;;30.50;4.60;;;;;;;-146.27;88.41;33075.13;5086146;28;20523;-68
2023/12/16 09:00:21;;;;;;;17.80;4.20;;;;;;;-146.27;88.40;33045.34;5104332;28;20237;-69
2023/12/16 09:02:47;;;;;;;25.63;5.10;;;;;;;-146.27;89.24;33081.06;5078208;28;20032;-68
2023/12/16 09:05:13;;;;;;;26.77;4.40;;;;;;;-146.27;88.20;32993.78;5107686;27;20418;-70
2023/12/16 09:07:38;;;;;;;24.00;5.13;;;;;;;-146.27;87.58;32928.31;5075594;28;20043;-69
2023/12/16 09:10:05;;;;;;;22.98;6.07;;;;;;;-146.27;87.59;32910.44;5082841;28;20080;-68
2023/12/16 09:12:31;;;;;;;30.08;4.80;;;;;;;-146.27;87.86;32896.56;5087734;28;20381;-68
2023/12/16 09:14:57;;;;;;;20.98;4.82;;;;;;;-146.27;88.06;32967.97;5079627;28;20126;-69
2023/12/16 09:17:28;;;;;;;27.00;5.63;;;;;;;-146.27;87.73;32926.31;5080122;28;20404;-69
2023/12/16 09:20:02;;;;;;;24.63;5.47;;;;;;;-146.27;88.22;32922.34;5143825;27;20405;-69
2023/12/16 09:22:28;;;;;;;22.33;4.70;;;;;;;-146.27;87.62;32831.09;5145450;27;20117;-68
2023/12/16 09:24:56;;;;;;;22.92;6.18;;;;;;;-146.27;87.52;32894.56;5146215;27;20106;-69
2023/12/16 09:27:22;;;;;;;29.85;6.18;;;;;;;-146.27;89.16;32898.53;5138942;27;20027;-70
2023/12/16 09:29:50;;;;;;;18.85;5.75;;;;;;;-146.27;89.61;32827.13;5148765;27;20105;-69
2023/12/16 09:32:16;;;;;;;22.38;6.22;;;;;;;-146.27;90.00;32900.53;5143346;27;20027;-70
2023/12/16 09:34:42;;;;;;;20.50;6.10;;;;;;;-146.27;89.53;32787.44;5146036;27;20056;-69
2023/12/16 09:37:08;;;;;;;19.35;6.43;;;;;;;-146.27;88.86;32696.19;5143917;27;20030;-69
2023/12/16 09:39:35;;;;;;;18.92;7.18;;;;;;;-146.27;88.29;32708.09;5142373;27;20031;-68
2023/12/16 09:42:04;;;;;;;25.67;6.18;;;;;;;-146.27;88.71;32723.97;5137467;27;20110;-69
2023/12/16 09:44:36;;;;;;;22.33;6.15;;;;;;;-146.27;89.10;32733.88;5142405;27;20525;-69
2023/12/16 09:47:05;;;;;;;15.85;6.70;;;;;;;-146.27;89.34;32642.63;5141452;27;20027;-70
2023/12/16 09:49:31;;;;;;;30.17;6.53;;;;;;;-146.27;89.24;32708.09;5143123;27;20625;-71
2023/12/16 09:51:57;;;;;;;21.55;6.45;;;;;;;-146.27;89.59;32743.81;5139330;27;20023;-70
2023/12/16 09:54:22;;;;;;;31.63;6.53;;;;;;;-146.27;90.04;32753.72;5146884;27;20064;-69
2023/12/16 09:56:49;;;;;;;25.98;7.13;;;;;;;-146.27;89.38;32767.59;5146808;27;20026;-70
2023/12/16 09:59:16;;;;;;;25.90;5.75;;;;;;;-146.27;89.88;32704.13;5146658;27;20043;-70
2023/12/16 10:02:05;;;;;;;20.63;7.03;;;;;;;-146.27;91.08;32846.97;5146041;27;20019;-70
2023/12/16 10:04:33;;;;;;;20.65;6.13;;;;;;;-146.27;89.88;32716.03;5147740;27;20027;-69
2023/12/16 10:06:58;;;;;;;14.60;5.97;;;;;;;-146.27;89.31;32658.50;5142379;27;20027;-69
2023/12/16 10:09:24;;;;;;;34.13;7.03;;;;;;;-146.27;89.16;32704.13;5143714;27;20026;-69
2023/12/16 10:11:51;;;;;;;22.58;5.57;;;;;;;-146.27;89.05;32723.97;5137407;27;20034;-69
2023/12/16 10:14:16;;;;;;;13.18;5.47;;;;;;;-146.27;89.72;32757.69;5143753;27;20390;-69
2023/12/16 10:16:47;;;;;;;17.08;4.65;;;;;;;-146.27;90.77;32850.94;5143586;27;20026;-68
2023/12/16 10:19:14;;;;;;;23.15;5.53;;;;;;;-146.27;91.39;32797.38;5144872;27;20514;-68
2023/12/16 10:21:40;;;;;;;21.75;6.18;;;;;;;-146.27;90.09;32666.44;5145795;27;20490;-69
2023/12/16 10:24:08;;;;;;;25.30;5.90;;;;;;;-146.27;90.13;32731.91;5145675;27;20034;-70
2023/12/16 10:26:41;;;;;;;29.25;5.72;;;;;;;-146.27;90.50;32704.13;5137418;27;20110;-69
2023/12/16 10:29:06;;;;;;;21.52;5.38;;;;;;;-146.27;90.45;32767.59;5144317;27;20030;-68
2023/12/16 10:31:34;;;;;;;20.95;5.65;;;;;;;-146.27;90.77;32737.84;5125608;27;20034;-68
2023/12/16 10:34:02;;;;;;;25.67;5.63;;;;;;;-146.27;90.07;32716.03;5126779;27;20095;-69
2023/12/16 10:36:31;;;;;;;22.40;6.00;;;;;;;-146.27;90.48;32706.09;5125251;27;20027;-68
2023/12/16 10:38:57;;;;;;;18.73;5.45;;;;;;;-146.27;90.69;32731.91;5129752;27;20039;-69
2023/12/16 10:41:23;;;;;;;16.42;6.10;;;;;;;-146.27;90.43;32672.38;5132451;27;20079;-70
2023/12/16 10:43:48;;;;;;;25.42;7.90;;;;;;;-146.27;92.01;32735.88;5124208;27;20035;-70
2023/12/16 10:46:17;;;;;;;19.27;7.82;;;;;;;-146.27;90.68;32712.06;5128569;27;20102;-71
2023/12/16 10:48:47;;;;;;;21.63;7.55;;;;;;;-146.27;91.30;32710.06;5118514;27;20068;-70
2023/12/16 10:51:18;;;;;;;19.65;7.50;;;;;;;-146.27;91.21;32735.88;5122742;27;20027;-70
2023/12/16 10:54:09;;;;;;;19.92;9.00;;;;;;;-146.27;92.09;32743.81;5138578;27;20072;-70
2023/12/16 10:56:42;;;;;;;16.83;7.90;;;;;;;-146.27;91.55;32668.41;5126250;27;20499;-70
2023/12/16 10:59:29;;;;;;;32.70;8.15;;;;;;;-146.27;92.30;32741.81;5120767;27;20034;-70
2023/12/16 11:01:57;;;;;;;25.85;8.27;;;;;;;-146.27;91.71;32622.78;5126536;27;20064;-70
2023/12/16 11:04:32;;;;;;;22.23;9.00;;;;;;;-146.27;92.47;32702.13;5121533;27;20031;-68